Time;durP1;ratioP1;P1;durP2;ratioP2;P2;SDS_P1;SDS_P2;PMS_P1;PMS_P2;Temp;Humidity;BMP_temperature;BMP_pressure;BME280_temperature;BME280_humidity;BME280_pressure;Samples;Min_cycle;Max_cycle;Signal;HPM_P1;HPM_P2
2024/01/11 00:01:00;;;;;;;;;;;19.10;42.20;;;;;;5091997;28;19932;-57
2024/01/11 00:03:27;;;;;;;;;;;19.10;42.20;;;;;;5092570;28;19928;-57
2024/01/11 00:05:54;;;;;;;;;;;19.10;42.30;;;;;;5085394;28;19927;-57
2024/01/11 00:08:20;;;;;;;;;;;19.10;42.30;;;;;;5080069;28;19920;-57
2024/01/11 00:10:48;;;;;;;;;;;19.10;42.30;;;;;;5084258;28;19969;-56
2024/01/11 00:13:15;;;;;;;;;;;19.10;42.30;;;;;;5079073;28;19939;-56
2024/01/11 00:15:42;;;;;;;;;;;19.10;42.90;;;;;;5076348;28;19977;-57
2024/01/11 00:18:08;;;;;;;;;;;19.10;42.40;;;;;;5091545;28;19968;-57
2024/01/11 00:20:35;;;;;;;;;;;19.10;42.40;;;;;;5076250;28;19942;-57
2024/01/11 00:23:02;;;;;;;;;;;19.10;42.50;;;;;;5067153;28;20301;-57
2024/01/11 00:25:29;;;;;;;;;;;19.10;42.50;;;;;;5077025;28;19950;-57
2024/01/11 00:27:57;;;;;;;;;;;19.10;42.50;;;;;;5091288;28;19977;-57
2024/01/11 00:30:24;;;;;;;;;;;19.10;42.50;;;;;;5073505;28;20333;-57
2024/01/11 00:32:51;;;;;;;;;;;19.10;42.50;;;;;;5072743;28;20602;-57
2024/01/11 00:35:17;;;;;;;;;;;19.10;42.50;;;;;;5073508;28;19920;-57
2024/01/11 00:37:44;;;;;;;;;;;19.10;42.50;;;;;;5091392;28;19924;-57
2024/01/11 00:40:11;;;;;;;;;;;19.10;42.60;;;;;;5081937;28;19920;-57
2024/01/11 00:42:38;;;;;;;;;;;19.10;42.60;;;;;;5082948;28;19923;-57
2024/01/11 00:45:07;;;;;;;;;;;19.10;42.60;;;;;;5062565;28;19939;-57
2024/01/11 00:47:33;;;;;;;;;;;19.10;42.70;;;;;;5074439;28;19989;-57
2024/01/11 00:50:00;;;;;;;;;;;19.10;42.70;;;;;;5074129;28;19932;-57
2024/01/11 00:52:27;;;;;;;;;;;19.10;42.70;;;;;;5080197;28;19924;-56
2024/01/11 00:54:54;;;;;;;;;;;19.10;42.80;;;;;;5064651;28;19927;-56
2024/01/11 00:57:20;;;;;;;;;;;19.10;42.80;;;;;;5076373;28;19931;-55
2024/01/11 00:59:47;;;;;;;;;;;19.10;42.80;;;;;;5083271;28;20015;-57
2024/01/11 01:02:15;;;;;;;;;;;19.10;42.80;;;;;;5065396;28;19936;-54
2024/01/11 01:04:42;;;;;;;;;;;19.10;42.80;;;;;;5081790;28;19920;-57
2024/01/11 01:07:09;;;;;;;;;;;19.10;42.90;;;;;;5077111;28;19977;-57
2024/01/11 01:09:36;;;;;;;;;;;19.10;42.90;;;;;;5078567;28;19932;-56
2024/01/11 01:12:03;;;;;;;;;;;19.10;42.90;;;;;;5076967;28;19950;-56
2024/01/11 01:14:30;;;;;;;;;;;19.10;42.90;;;;;;5087053;28;19931;-57
2024/01/11 01:16:57;;;;;;;;;;;19.10;42.90;;;;;;5078347;28;19985;-57
2024/01/11 01:19:25;;;;;;;;;;;19.10;43.00;;;;;;5079407;28;19927;-58
2024/01/11 01:21:52;;;;;;;;;;;19.10;42.90;;;;;;5092340;28;19920;-57
2024/01/11 01:24:18;;;;;;;;;;;19.10;43.00;;;;;;5076240;28;19927;-57
2024/01/11 01:26:45;;;;;;;;;;;19.10;42.90;;;;;;5073700;28;19927;-57
2024/01/11 01:29:12;;;;;;;;;;;19.10;42.90;;;;;;5075802;28;19970;-57
2024/01/11 01:31:39;;;;;;;;;;;19.10;42.90;;;;;;5077055;28;19965;-57
2024/01/11 01:34:07;;;;;;;;;;;19.10;42.90;;;;;;5099980;28;19920;-57
2024/01/11 01:36:35;;;;;;;;;;;19.10;42.90;;;;;;5080645;28;19927;-56
2024/01/11 01:39:03;;;;;;;;;;;19.10;43.50;;;;;;5094886;28;19924;-57
2024/01/11 01:41:29;;;;;;;;;;;19.10;43.00;;;;;;5099438;28;19927;-57
2024/01/11 01:43:56;;;;;;;;;;;19.10;43.00;;;;;;5094968;28;20157;-57
2024/01/11 01:46:24;;;;;;;;;;;19.10;43.00;;;;;;5081751;28;19961;-57
2024/01/11 01:48:50;;;;;;;;;;;19.10;43.00;;;;;;5074160;28;19981;-57
2024/01/11 01:51:17;;;;;;;;;;;19.10;43.00;;;;;;5076396;28;19931;-57
2024/01/11 01:53:45;;;;;;;;;;;19.10;42.90;;;;;;5070832;28;20029;-57
2024/01/11 01:56:12;;;;;;;;;;;19.10;43.00;;;;;;5071885;28;19921;-57
2024/01/11 01:58:39;;;;;;;;;;;19.10;43.00;;;;;;5065326;28;19924;-57
2024/01/11 02:01:05;;;;;;;;;;;19.10;42.90;;;;;;5067797;28;19969;-57
2024/01/11 02:03:32;;;;;;;;;;;19.10;43.00;;;;;;5083259;28;20232;-57
2024/01/11 02:05:59;;;;;;;;;;;19.10;43.00;;;;;;5084531;28;19927;-57
2024/01/11 02:08:25;;;;;;;;;;;19.10;43.00;;;;;;5094133;28;19943;-57
2024/01/11 02:10:53;;;;;;;;;;;19.10;43.00;;;;;;5082025;28;19927;-57
2024/01/11 02:13:20;;;;;;;;;;;19.10;43.00;;;;;;5099348;28;19920;-57
2024/01/11 02:15:47;;;;;;;;;;;19.10;43.00;;;;;;5086314;28;19947;-57
2024/01/11 02:18:14;;;;;;;;;;;19.10;43.10;;;;;;5074592;28;19928;-57
2024/01/11 02:20:40;;;;;;;;;;;19.10;43.10;;;;;;5084133;28;19973;-58
2024/01/11 02:23:09;;;;;;;;;;;19.10;43.10;;;;;;5092954;28;19989;-58
2024/01/11 02:25:37;;;;;;;;;;;19.10;43.10;;;;;;5097013;28;19931;-58
2024/01/11 02:28:04;;;;;;;;;;;19.10;43.10;;;;;;5075989;28;19920;-57
2024/01/11 02:30:31;;;;;;;;;;;19.10;43.20;;;;;;5075378;28;19943;-57
2024/01/11 02:32:58;;;;;;;;;;;19.10;43.20;;;;;;5082686;28;19924;-57
2024/01/11 02:35:24;;;;;;;;;;;19.10;43.20;;;;;;5079798;28;19920;-58
2024/01/11 02:37:51;;;;;;;;;;;19.10;43.20;;;;;;5075330;28;20270;-57
2024/01/11 02:40:18;;;;;;;;;;;19.10;43.20;;;;;;5088435;28;19923;-58
2024/01/11 02:42:46;;;;;;;;;;;19.10;43.20;;;;;;5099519;28;19928;-57
2024/01/11 02:45:13;;;;;;;;;;;19.10;43.20;;;;;;5074150;28;19977;-58
2024/01/11 02:47:40;;;;;;;;;;;19.10;43.20;;;;;;5074812;28;19927;-57
2024/01/11 02:50:07;;;;;;;;;;;19.10;43.20;;;;;;5093396;28;19924;-57
2024/01/11 02:52:34;;;;;;;;;;;19.10;43.30;;;;;;5094422;28;19927;-56
2024/01/11 02:55:01;;;;;;;;;;;19.10;43.30;;;;;;5093431;28;19943;-57
2024/01/11 02:57:28;;;;;;;;;;;19.10;43.20;;;;;;5092607;28;20059;-57
2024/01/11 02:59:56;;;;;;;;;;;19.10;43.30;;;;;;5076922;28;19973;-57
2024/01/11 03:02:22;;;;;;;;;;;19.10;43.30;;;;;;5084506;28;19920;-58
2024/01/11 03:04:49;;;;;;;;;;;19.10;43.30;;;;;;5086511;28;19928;-57
2024/01/11 03:07:16;;;;;;;;;;;19.10;43.30;;;;;;5081825;28;20340;-57
2024/01/11 03:09:43;;;;;;;;;;;19.10;43.30;;;;;;5092149;28;19934;-57
2024/01/11 03:12:10;;;;;;;;;;;19.10;43.30;;;;;;5075263;28;19920;-57
2024/01/11 03:14:36;;;;;;;;;;;19.10;43.30;;;;;;5070931;28;20029;-57
2024/01/11 03:17:05;;;;;;;;;;;19.10;43.30;;;;;;5074140;28;19931;-58
2024/01/11 03:19:32;;;;;;;;;;;19.10;43.30;;;;;;5081432;28;19924;-57
2024/01/11 03:22:02;;;;;;;;;;;19.10;43.30;;;;;;5083386;28;19923;-57
2024/01/11 03:24:29;;;;;;;;;;;19.10;43.30;;;;;;5091559;28;20011;-57
2024/01/11 03:26:56;;;;;;;;;;;19.10;43.20;;;;;;5059224;28;19920;-57
2024/01/11 03:29:23;;;;;;;;;;;19.10;43.20;;;;;;5069917;28;19920;-58
2024/01/11 03:31:49;;;;;;;;;;;19.10;43.20;;;;;;5093098;28;20458;-57
2024/01/11 03:34:17;;;;;;;;;;;19.10;43.20;;;;;;5069668;28;20345;-57
2024/01/11 03:36:44;;;;;;;;;;;19.10;43.30;;;;;;5079801;28;19924;-57
2024/01/11 03:39:11;;;;;;;;;;;19.10;43.20;;;;;;5091692;28;19928;-57
2024/01/11 03:41:38;;;;;;;;;;;19.10;43.20;;;;;;5076904;28;19945;-57
2024/01/11 03:44:05;;;;;;;;;;;19.10;43.20;;;;;;5082279;28;19974;-57
2024/01/11 03:46:31;;;;;;;;;;;19.10;43.20;;;;;;5074216;28;19931;-57
2024/01/11 03:48:59;;;;;;;;;;;19.10;43.20;;;;;;5072395;28;19995;-57
2024/01/11 03:51:27;;;;;;;;;;;19.10;43.20;;;;;;5085636;28;19920;-58
2024/01/11 03:53:54;;;;;;;;;;;19.10;43.20;;;;;;5073915;28;19928;-57
2024/01/11 03:56:21;;;;;;;;;;;19.10;43.20;;;;;;5068182;28;19927;-57
2024/01/11 03:58:48;;;;;;;;;;;19.10;43.20;;;;;;5077576;28;20021;-55
2024/01/11 04:01:14;;;;;;;;;;;19.10;43.20;;;;;;5082573;28;19924;-56
2024/01/11 04:03:42;;;;;;;;;;;19.10;43.20;;;;;;5092273;28;20150;-57
2024/01/11 04:06:09;;;;;;;;;;;19.10;43.20;;;;;;5073346;28;19924;-57
2024/01/11 04:08:37;;;;;;;;;;;19.10;43.20;;;;;;5091474;28;19920;-57
2024/01/11 04:11:04;;;;;;;;;;;19.10;43.20;;;;;;5091118;28;19984;-57
2024/01/11 04:13:31;;;;;;;;;;;19.10;43.20;;;;;;5085800;28;19989;-57
2024/01/11 04:15:57;;;;;;;;;;;19.10;43.20;;;;;;5082209;28;19924;-58
2024/01/11 04:18:24;;;;;;;;;;;19.10;43.20;;;;;;5092930;28;20235;-58
2024/01/11 04:20:51;;;;;;;;;;;19.10;43.20;;;;;;5093577;28;20307;-57
2024/01/11 04:23:18;;;;;;;;;;;19.10;43.30;;;;;;5073373;28;19920;-57
2024/01/11 04:25:46;;;;;;;;;;;19.10;43.30;;;;;;5066851;28;19990;-57
2024/01/11 04:28:13;;;;;;;;;;;19.10;43.30;;;;;;5074864;28;19969;-57
2024/01/11 04:30:40;;;;;;;;;;;19.10;43.30;;;;;;5081834;28;19924;-57
2024/01/11 04:33:06;;;;;;;;;;;19.10;43.30;;;;;;5088295;28;19924;-57
2024/01/11 04:35:33;;;;;;;;;;;19.10;43.40;;;;;;5075677;28;19920;-57
2024/01/11 04:38:00;;;;;;;;;;;19.10;43.40;;;;;;5074100;28;19928;-57
2024/01/11 04:40:27;;;;;;;;;;;19.10;43.40;;;;;;5091270;28;19997;-57
2024/01/11 04:42:55;;;;;;;;;;;19.10;44.00;;;;;;5085365;28;19995;-57
2024/01/11 04:45:21;;;;;;;;;;;19.10;43.50;;;;;;5076080;28;19927;-57
2024/01/11 04:47:49;;;;;;;;;;;19.10;43.50;;;;;;5073197;28;19970;-55
2024/01/11 04:50:16;;;;;;;;;;;19.10;43.50;;;;;;5080165;28;19927;-57
2024/01/11 04:52:43;;;;;;;;;;;19.10;43.50;;;;;;5072996;28;19924;-57
2024/01/11 04:55:10;;;;;;;;;;;19.10;43.50;;;;;;5076041;28;19931;-57
2024/01/11 04:57:36;;;;;;;;;;;19.10;43.50;;;;;;5074782;28;19932;-57
2024/01/11 05:00:05;;;;;;;;;;;19.10;43.50;;;;;;5080929;28;19927;-57
2024/01/11 05:02:32;;;;;;;;;;;19.10;43.60;;;;;;5069433;28;19924;-57
2024/01/11 05:04:59;;;;;;;;;;;19.10;43.60;;;;;;5073345;28;19928;-57
2024/01/11 05:07:25;;;;;;;;;;;19.10;43.60;;;;;;5078469;28;19970;-57
2024/01/11 05:09:52;;;;;;;;;;;19.10;43.60;;;;;;5075541;28;20289;-57
2024/01/11 05:12:19;;;;;;;;;;;19.10;43.50;;;;;;5079237;28;19927;-57
2024/01/11 05:14:45;;;;;;;;;;;19.10;43.60;;;;;;5078539;28;19924;-57
2024/01/11 05:17:14;;;;;;;;;;;19.10;43.50;;;;;;5075929;28;20179;-57
2024/01/11 05:19:40;;;;;;;;;;;19.10;43.50;;;;;;5086996;28;19966;-57
2024/01/11 05:22:07;;;;;;;;;;;19.10;43.50;;;;;;5084771;28;20388;-57
2024/01/11 05:24:34;;;;;;;;;;;19.10;43.50;;;;;;5068675;28;19920;-57
2024/01/11 05:27:01;;;;;;;;;;;19.10;43.50;;;;;;5089761;28;19963;-57
2024/01/11 05:29:28;;;;;;;;;;;19.10;43.40;;;;;;5076486;28;19920;-57
2024/01/11 05:31:54;;;;;;;;;;;19.10;43.40;;;;;;5073199;28;19920;-57
2024/01/11 05:34:22;;;;;;;;;;;19.10;43.40;;;;;;5067573;28;19952;-58
2024/01/11 05:36:49;;;;;;;;;;;19.10;43.40;;;;;;5070574;28;19931;-57
2024/01/11 05:39:16;;;;;;;;;;;19.10;43.40;;;;;;5074751;28;19928;-57
2024/01/11 05:41:44;;;;;;;;;;;19.10;43.40;;;;;;5073385;28;20021;-57
2024/01/11 05:44:11;;;;;;;;;;;19.00;43.30;;;;;;5072972;28;19998;-56
2024/01/11 05:46:37;;;;;;;;;;;19.10;43.40;;;;;;5072450;28;19920;-57
2024/01/11 05:49:04;;;;;;;;;;;19.10;43.40;;;;;;5081103;28;19924;-55
2024/01/11 05:51:32;;;;;;;;;;;19.00;43.20;;;;;;5092095;28;19947;-57
2024/01/11 05:53:59;;;;;;;;;;;19.10;43.40;;;;;;5084682;28;19920;-57
2024/01/11 05:56:26;;;;;;;;;;;19.10;43.40;;;;;;5086076;28;19924;-57
2024/01/11 05:58:52;;;;;;;;;;;19.10;43.30;;;;;;5083328;28;19927;-57
2024/01/11 06:01:19;;;;;;;;;;;19.10;43.30;;;;;;5073121;28;19921;-58
2024/01/11 06:03:46;;;;;;;;;;;19.10;43.40;;;;;;5077283;28;20403;-57
2024/01/11 06:06:12;;;;;;;;;;;19.00;43.30;;;;;;5087341;28;19974;-57
2024/01/11 06:08:42;;;;;;;;;;;19.10;43.40;;;;;;5066395;28;19960;-57
2024/01/11 06:11:09;;;;;;;;;;;19.10;43.40;;;;;;5087025;28;20009;-57
2024/01/11 06:13:35;;;;;;;;;;;19.10;43.40;;;;;;5087981;28;19981;-56
2024/01/11 06:16:02;;;;;;;;;;;19.10;43.40;;;;;;5093533;28;20414;-57
2024/01/11 06:18:30;;;;;;;;;;;19.10;43.40;;;;;;5085801;28;19921;-57
2024/01/11 06:20:57;;;;;;;;;;;19.10;43.40;;;;;;5093189;28;19924;-57
2024/01/11 06:23:25;;;;;;;;;;;19.10;43.50;;;;;;5094600;28;19935;-57
2024/01/11 06:25:53;;;;;;;;;;;19.10;43.50;;;;;;5082411;28;19920;-57
2024/01/11 06:28:19;;;;;;;;;;;19.10;43.50;;;;;;5092712;28;19981;-57
2024/01/11 06:30:46;;;;;;;;;;;19.10;43.50;;;;;;5083610;28;19920;-58
2024/01/11 06:33:13;;;;;;;;;;;19.10;43.50;;;;;;5082224;28;19981;-57
2024/01/11 06:35:40;;;;;;;;;;;19.10;43.50;;;;;;5081535;28;19924;-56
2024/01/11 06:38:07;;;;;;;;;;;19.10;43.60;;;;;;5092972;28;19956;-57
2024/01/11 06:40:34;;;;;;;;;;;19.10;43.50;;;;;;5085114;28;19959;-57
2024/01/11 06:43:02;;;;;;;;;;;19.10;43.60;;;;;;5083525;28;19982;-57
2024/01/11 06:45:29;;;;;;;;;;;19.00;43.50;;;;;;5092484;28;19996;-57
2024/01/11 06:47:56;;;;;;;;;;;19.10;43.60;;;;;;5078063;28;19931;-57
2024/01/11 06:50:23;;;;;;;;;;;19.10;43.60;;;;;;5080418;28;19942;-57
2024/01/11 06:52:50;;;;;;;;;;;19.10;43.60;;;;;;5080642;28;19924;-57
2024/01/11 06:55:17;;;;;;;;;;;19.10;43.60;;;;;;5086777;28;19920;-58
2024/01/11 06:57:44;;;;;;;;;;;19.10;43.70;;;;;;5092703;28;19932;-58
2024/01/11 07:00:13;;;;;;;;;;;19.10;43.70;;;;;;5081541;28;19938;-58
2024/01/11 07:02:40;;;;;;;;;;;19.10;43.70;;;;;;5084202;28;19985;-58
2024/01/11 07:05:07;;;;;;;;;;;19.10;43.70;;;;;;5082272;28;19927;-56
2024/01/11 07:07:34;;;;;;;;;;;19.10;43.70;;;;;;5081510;28;19932;-57
2024/01/11 07:10:01;;;;;;;;;;;19.10;43.70;;;;;;5081622;28;19924;-57
2024/01/11 07:12:28;;;;;;;;;;;19.10;43.70;;;;;;5077639;28;19932;-57
2024/01/11 07:14:54;;;;;;;;;;;19.10;43.70;;;;;;5082724;28;19924;-56
2024/01/11 07:17:23;;;;;;;;;;;19.00;43.60;;;;;;5091850;28;19924;-55
2024/01/11 07:19:50;;;;;;;;;;;19.10;43.70;;;;;;5082255;28;19959;-56
2024/01/11 07:22:17;;;;;;;;;;;19.10;43.70;;;;;;5080591;28;19920;-57
2024/01/11 07:24:43;;;;;;;;;;;19.10;43.60;;;;;;5077633;28;19924;-57
2024/01/11 07:27:10;;;;;;;;;;;19.10;43.70;;;;;;5079716;28;19999;-57
2024/01/11 07:29:37;;;;;;;;;;;19.10;43.60;;;;;;5081272;28;19932;-57
2024/01/11 07:32:04;;;;;;;;;;;19.10;43.60;;;;;;5080481;28;19931;-56
2024/01/11 07:34:32;;;;;;;;;;;19.10;43.60;;;;;;5079822;28;20011;-57
2024/01/11 07:36:59;;;;;;;;;;;19.10;43.60;;;;;;5090611;28;19920;-57
2024/01/11 07:39:26;;;;;;;;;;;19.10;43.60;;;;;;5082755;28;19969;-57
2024/01/11 07:41:53;;;;;;;;;;;19.10;43.60;;;;;;5075253;28;20434;-57
2024/01/11 07:44:20;;;;;;;;;;;19.10;43.30;;;;;;5078939;28;19920;-58
2024/01/11 07:46:47;;;;;;;;;;;19.00;33.40;;;;;;5088027;28;19920;-59
2024/01/11 07:49:14;;;;;;;;;;;18.70;30.60;;;;;;5078488;28;19920;-57
2024/01/11 07:51:42;;;;;;;;;;;18.50;30.00;;;;;;5080327;28;19924;-57
2024/01/11 07:54:09;;;;;;;;;;;18.20;32.90;;;;;;5079724;28;19920;-52
2024/01/11 07:56:35;;;;;;;;;;;18.00;34.70;;;;;;5058954;28;19931;-57
2024/01/11 07:59:02;;;;;;;;;;;17.90;36.20;;;;;;5073262;28;19957;-57
2024/01/11 08:01:29;;;;;;;;;;;17.90;37.30;;;;;;5077667;28;19939;-57
2024/01/11 08:03:56;;;;;;;;;;;17.90;38.00;;;;;;5088103;28;20262;-58
2024/01/11 08:06:23;;;;;;;;;;;18.00;38.60;;;;;;5073976;28;19973;-57
2024/01/11 08:08:52;;;;;;;;;;;18.00;39.00;;;;;;5088542;28;19957;-57
2024/01/11 08:11:19;;;;;;;;;;;18.00;39.50;;;;;;5084562;28;20011;-57
2024/01/11 08:13:46;;;;;;;;;;;18.10;39.80;;;;;;5077097;28;19928;-58
2024/01/11 08:16:16;;;;;;;;;;;18.20;40.10;;;;;;5079344;28;19939;-58
2024/01/11 08:18:43;;;;;;;;;;;18.20;40.20;;;;;;5079507;28;19920;-57
2024/01/11 08:21:10;;;;;;;;;;;18.30;40.50;;;;;;5087794;28;19920;-57
2024/01/11 08:23:39;;;;;;;;;;;18.30;40.60;;;;;;5087265;28;19934;-56
2024/01/11 08:26:08;;;;;;;;;;;18.40;40.70;;;;;;5083617;28;19963;-57
2024/01/11 08:28:35;;;;;;;;;;;18.40;40.90;;;;;;5073105;28;19935;-56
2024/01/11 08:31:04;;;;;;;;;;;18.50;41.00;;;;;;5077522;28;20044;-58
2024/01/11 08:33:31;;;;;;;;;;;18.50;41.10;;;;;;5077785;28;19924;-54
2024/01/11 08:35:58;;;;;;;;;;;18.60;41.30;;;;;;5079383;28;19931;-55
2024/01/11 08:38:25;;;;;;;;;;;18.60;41.40;;;;;;5089332;28;20023;-56
2024/01/11 08:40:52;;;;;;;;;;;18.60;41.50;;;;;;5081423;28;19964;-53
2024/01/11 08:43:20;;;;;;;;;;;18.70;41.70;;;;;;5088668;28;19924;-56
2024/01/11 08:45:46;;;;;;;;;;;18.70;41.70;;;;;;5089797;28;19932;-54
2024/01/11 08:48:13;;;;;;;;;;;18.70;41.70;;;;;;5077983;28;19974;-54
2024/01/11 08:50:40;;;;;;;;;;;18.70;41.80;;;;;;5082127;28;19973;-57
2024/01/11 08:53:07;;;;;;;;;;;18.70;41.90;;;;;;5080488;28;20411;-54
2024/01/11 08:55:34;;;;;;;;;;;18.70;41.90;;;;;;5078555;28;19924;-57
2024/01/11 08:58:01;;;;;;;;;;;18.70;41.90;;;;;;5086022;28;19932;-56
2024/01/11 09:00:29;;;;;;;;;;;18.80;42.10;;;;;;5089587;28;19928;-58
2024/01/11 09:02:56;;;;;;;;;;;18.80;42.20;;;;;;5088923;28;19949;-58
2024/01/11 09:05:23;;;;;;;;;;;18.80;42.20;;;;;;5083091;28;19924;-58
2024/01/11 09:07:49;;;;;;;;;;;18.80;42.20;;;;;;5088975;28;19942;-57
2024/01/11 09:10:16;;;;;;;;;;;18.80;42.30;;;;;;5088374;28;20350;-58
2024/01/11 09:12:43;;;;;;;;;;;18.90;42.40;;;;;;5090219;28;19920;-57
2024/01/11 09:15:11;;;;;;;;;;;18.90;42.40;;;;;;5080410;28;19931;-58
2024/01/11 09:17:39;;;;;;;;;;;18.90;42.50;;;;;;5085525;28;19928;-58
2024/01/11 09:20:06;;;;;;;;;;;18.90;42.50;;;;;;5083853;28;20358;-58
2024/01/11 09:22:33;;;;;;;;;;;18.90;42.50;;;;;;5069858;28;19920;-57
2024/01/11 09:25:00;;;;;;;;;;;18.90;42.50;;;;;;5087661;28;19934;-57
2024/01/11 09:27:27;;;;;;;;;;;18.90;42.40;;;;;;5068291;28;19977;-58
2024/01/11 09:29:54;;;;;;;;;;;18.90;42.50;;;;;;5066481;28;20029;-57
2024/01/11 09:32:21;;;;;;;;;;;18.90;42.50;;;;;;5074440;28;20013;-57
2024/01/11 09:34:50;;;;;;;;;;;18.90;42.50;;;;;;5075039;28;19920;-57
2024/01/11 09:37:17;;;;;;;;;;;18.90;42.50;;;;;;5066444;28;20354;-57
2024/01/11 09:39:44;;;;;;;;;;;19.00;42.60;;;;;;5081647;28;19927;-58
2024/01/11 09:42:11;;;;;;;;;;;18.90;42.60;;;;;;5093905;28;19920;-57
2024/01/11 09:44:38;;;;;;;;;;;19.00;42.60;;;;;;5080617;28;20379;-57
2024/01/11 09:47:05;;;;;;;;;;;18.90;42.60;;;;;;5074744;28;19920;-56
2024/01/11 09:49:32;;;;;;;;;;;19.00;42.70;;;;;;5076185;28;20044;-57
2024/01/11 09:52:01;;;;;;;;;;;19.00;42.70;;;;;;5071466;28;19920;-56
2024/01/11 09:54:28;;;;;;;;;;;19.00;42.70;;;;;;5073093;28;19920;-57
2024/01/11 09:56:54;;;;;;;;;;;19.00;42.80;;;;;;5073285;28;19927;-57
2024/01/11 09:59:22;;;;;;;;;;;19.00;42.80;;;;;;5078293;28;19920;-56
2024/01/11 10:01:48;;;;;;;;;;;19.00;42.80;;;;;;5080722;28;20333;-57
2024/01/11 10:04:15;;;;;;;;;;;19.00;42.80;;;;;;5078021;28;19927;-56
2024/01/11 10:06:42;;;;;;;;;;;19.00;42.90;;;;;;5072518;28;19920;-57
2024/01/11 10:09:10;;;;;;;;;;;19.10;43.00;;;;;;5099928;28;19945;-58
2024/01/11 10:11:38;;;;;;;;;;;19.10;43.00;;;;;;5079015;28;19927;-58
2024/01/11 10:14:05;;;;;;;;;;;19.10;43.10;;;;;;5093316;28;19927;-57
2024/01/11 10:16:31;;;;;;;;;;;19.10;43.10;;;;;;5069811;28;20002;-57
2024/01/11 10:18:58;;;;;;;;;;;19.10;43.10;;;;;;5073619;28;19920;-58
2024/01/11 10:21:25;;;;;;;;;;;19.10;43.10;;;;;;5079780;28;19931;-57
2024/01/11 10:23:52;;;;;;;;;;;19.10;43.10;;;;;;5090603;28;19927;-57
2024/01/11 10:26:21;;;;;;;;;;;19.10;43.10;;;;;;5091911;28;19920;-55
2024/01/11 10:28:48;;;;;;;;;;;19.10;43.10;;;;;;5080809;28;20026;-57
2024/01/11 10:31:15;;;;;;;;;;;19.10;43.10;;;;;;5066882;28;19924;-56
2024/01/11 10:33:42;;;;;;;;;;;19.10;43.10;;;;;;5076576;28;19981;-57
2024/01/11 10:36:09;;;;;;;;;;;19.10;43.10;;;;;;5074757;28;19921;-57
2024/01/11 10:38:36;;;;;;;;;;;19.20;43.20;;;;;;5068825;28;19924;-54
2024/01/11 10:41:05;;;;;;;;;;;19.10;43.10;;;;;;5089061;28;19927;-56
2024/01/11 10:43:34;;;;;;;;;;;19.20;43.20;;;;;;5079749;28;19920;-58
2024/01/11 10:46:03;;;;;;;;;;;19.20;43.20;;;;;;5088603;28;19939;-58
2024/01/11 10:48:31;;;;;;;;;;;19.20;43.20;;;;;;5069964;28;19950;-56
2024/01/11 10:50:59;;;;;;;;;;;19.20;43.20;;;;;;5072472;28;19926;-58
2024/01/11 10:53:29;;;;;;;;;;;19.20;43.20;;;;;;5088497;28;19927;-58
2024/01/11 10:55:56;;;;;;;;;;;19.20;43.20;;;;;;5086920;28;19928;-57
2024/01/11 10:58:23;;;;;;;;;;;19.20;43.20;;;;;;5071190;28;20309;-58
2024/01/11 11:00:51;;;;;;;;;;;19.20;43.30;;;;;;5067303;28;19923;-57
2024/01/11 11:03:18;;;;;;;;;;;19.20;43.30;;;;;;5063167;28;19964;-57
2024/01/11 11:05:45;;;;;;;;;;;19.20;43.30;;;;;;5073300;28;19973;-56
2024/01/11 11:08:12;;;;;;;;;;;19.20;43.30;;;;;;5070054;28;19943;-57
2024/01/11 11:10:38;;;;;;;;;;;19.20;43.30;;;;;;5086351;28;20246;-57
2024/01/11 11:13:06;;;;;;;;;;;19.20;43.30;;;;;;5076148;28;19920;-56
2024/01/11 11:15:33;;;;;;;;;;;19.20;43.30;;;;;;5069452;28;19970;-58
2024/01/11 11:18:01;;;;;;;;;;;19.20;43.40;;;;;;5074039;28;19920;-57
2024/01/11 11:20:28;;;;;;;;;;;19.30;43.50;;;;;;5091868;28;19920;-57
2024/01/11 11:23:04;;;;;;;;;;;19.20;43.40;;;;;;5083777;28;19920;-56
2024/01/11 11:25:32;;;;;;;;;;;19.20;43.40;;;;;;5067000;28;19943;-58
2024/01/11 11:28:01;;;;;;;;;;;19.30;43.50;;;;;;5075877;28;20011;-56
2024/01/11 11:30:27;;;;;;;;;;;19.20;43.40;;;;;;5090756;28;19921;-56
2024/01/11 11:32:54;;;;;;;;;;;19.20;43.40;;;;;;5083334;28;20011;-57
2024/01/11 11:35:22;;;;;;;;;;;19.30;43.50;;;;;;5075125;28;19926;-56
2024/01/11 11:37:50;;;;;;;;;;;19.30;43.50;;;;;;5066694;28;19943;-56
2024/01/11 11:40:17;;;;;;;;;;;19.20;43.50;;;;;;5093004;28;19924;-57
2024/01/11 11:42:45;;;;;;;;;;;19.30;43.50;;;;;;5085088;28;20987;-57
2024/01/11 11:45:12;;;;;;;;;;;19.20;43.50;;;;;;5063818;28;19920;-56
2024/01/11 11:47:39;;;;;;;;;;;19.30;43.50;;;;;;5084898;28;19920;-57
2024/01/11 11:50:09;;;;;;;;;;;19.30;43.50;;;;;;5068454;28;19920;-57
2024/01/11 11:52:37;;;;;;;;;;;19.30;43.60;;;;;;5063621;28;20380;-57
2024/01/11 11:55:04;;;;;;;;;;;19.30;43.60;;;;;;5067922;28;19920;-57
2024/01/11 11:57:32;;;;;;;;;;;19.30;43.60;;;;;;5083109;28;19931;-57
2024/01/11 11:59:59;;;;;;;;;;;19.30;43.60;;;;;;5091058;28;19920;-57
2024/01/11 12:02:26;;;;;;;;;;;19.30;43.60;;;;;;5070721;28;19927;-57
2024/01/11 12:04:53;;;;;;;;;;;19.30;43.60;;;;;;5071082;28;19920;-57
2024/01/11 12:07:20;;;;;;;;;;;19.30;43.60;;;;;;5072519;28;19928;-57
2024/01/11 12:09:48;;;;;;;;;;;19.30;43.60;;;;;;5085844;28;19985;-57
2024/01/11 12:12:17;;;;;;;;;;;19.30;43.60;;;;;;5076124;28;19928;-57
2024/01/11 12:14:44;;;;;;;;;;;19.30;43.70;;;;;;5086390;28;19971;-57
2024/01/11 12:17:10;;;;;;;;;;;19.30;43.70;;;;;;5070698;28;19920;-57
2024/01/11 12:19:37;;;;;;;;;;;19.30;43.70;;;;;;5073287;28;19924;-57
2024/01/11 12:22:04;;;;;;;;;;;19.30;43.70;;;;;;5073875;28;19924;-57
2024/01/11 12:24:31;;;;;;;;;;;19.30;43.70;;;;;;5062532;28;19924;-57
2024/01/11 12:27:26;;;;;;;;;;;19.30;43.70;;;;;;5088617;28;19974;-57
2024/01/11 12:29:55;;;;;;;;;;;19.30;43.70;;;;;;5018861;28;19943;-57
2024/01/11 12:32:23;;;;;;;;;;;19.30;43.70;;;;;;5028287;28;19928;-56
2024/01/11 12:34:50;;;;;;;;;;;19.30;43.70;;;;;;5022393;28;19949;-57
2024/01/11 12:37:21;;;;;;;;;;;19.30;43.70;;;;;;5018172;28;19924;-57
2024/01/11 12:39:48;;;;;;;;;;;19.30;43.80;;;;;;5036308;28;20089;-58
2024/01/11 12:42:14;;;;;;;;;;;19.30;43.70;;;;;;5016610;28;19932;-58
2024/01/11 12:44:42;;;;;;;;;;;19.30;43.80;;;;;;5020520;28;19932;-57
2024/01/11 12:47:10;;;;;;;;;;;19.30;43.80;;;;;;5020940;28;19925;-57
2024/01/11 12:49:37;;;;;;;;;;;19.30;43.80;;;;;;5037298;28;19920;-57
2024/01/11 12:52:04;;;;;;;;;;;19.30;43.80;;;;;;5035613;28;19921;-57
2024/01/11 12:54:34;;;;;;;;;;;19.30;43.80;;;;;;5021110;28;19989;-58
2024/01/11 12:57:02;;;;;;;;;;;19.30;43.80;;;;;;5047561;28;19933;-53
2024/01/11 12:59:29;;;;;;;;;;;19.40;44.00;;;;;;5025322;28;19921;-58
2024/01/11 13:01:56;;;;;;;;;;;19.40;44.00;;;;;;5026612;28;19924;-57
2024/01/11 13:04:25;;;;;;;;;;;19.40;44.00;;;;;;5017321;28;19927;-58
2024/01/11 13:06:52;;;;;;;;;;;19.40;44.00;;;;;;5038631;28;19928;-57
2024/01/11 13:09:18;;;;;;;;;;;19.30;43.90;;;;;;5029425;28;19932;-56
2024/01/11 13:11:45;;;;;;;;;;;19.30;43.90;;;;;;5041721;28;19931;-57
2024/01/11 13:14:18;;;;;;;;;;;19.40;44.10;;;;;;5024097;28;19940;-57
2024/01/11 13:16:45;;;;;;;;;;;19.30;44.00;;;;;;5030821;28;19957;-56
2024/01/11 13:19:12;;;;;;;;;;;19.40;44.10;;;;;;5025152;28;19927;-56
2024/01/11 13:21:40;;;;;;;;;;;19.40;44.10;;;;;;5073796;28;19924;-57
2024/01/11 13:24:07;;;;;;;;;;;19.40;44.10;;;;;;5093218;28;19973;-58
2024/01/11 13:26:34;;;;;;;;;;;19.40;44.10;;;;;;5088596;28;19942;-54
2024/01/11 13:29:01;;;;;;;;;;;19.40;44.10;;;;;;5076545;28;19932;-54
2024/01/11 13:31:27;;;;;;;;;;;19.30;44.00;;;;;;5066965;28;19924;-57
2024/01/11 13:33:55;;;;;;;;;;;19.40;44.10;;;;;;5079784;28;19973;-57
2024/01/11 13:36:21;;;;;;;;;;;19.40;44.10;;;;;;5065954;28;19920;-58
2024/01/11 13:38:50;;;;;;;;;;;19.40;44.10;;;;;;5082704;28;19929;-57
2024/01/11 13:41:17;;;;;;;;;;;19.40;44.10;;;;;;5075997;28;19924;-57
2024/01/11 13:43:43;;;;;;;;;;;19.40;44.10;;;;;;5086508;28;19920;-57
2024/01/11 13:46:11;;;;;;;;;;;19.40;44.10;;;;;;5066450;28;20379;-55
2024/01/11 13:48:39;;;;;;;;;;;19.40;44.20;;;;;;5076595;28;20242;-56
2024/01/11 13:51:07;;;;;;;;;;;19.40;44.20;;;;;;5079076;28;19955;-56
2024/01/11 13:53:34;;;;;;;;;;;19.40;44.20;;;;;;5089566;28;19965;-52
2024/01/11 13:56:02;;;;;;;;;;;19.40;44.20;;;;;;5090349;28;20245;-57
2024/01/11 13:58:29;;;;;;;;;;;19.40;44.20;;;;;;5072872;28;19995;-56
2024/01/11 14:00:55;;;;;;;;;;;19.40;44.40;;;;;;5067432;28;19932;-53
2024/01/11 14:03:22;;;;;;;;;;;19.40;44.20;;;;;;5085840;28;19919;-56
2024/01/11 14:05:49;;;;;;;;;;;19.40;44.20;;;;;;5084877;28;19920;-58
2024/01/11 14:08:16;;;;;;;;;;;19.40;44.20;;;;;;5070124;28;19991;-53
2024/01/11 14:10:42;;;;;;;;;;;19.40;44.20;;;;;;5064465;28;20001;-50
2024/01/11 14:13:10;;;;;;;;;;;19.40;44.20;;;;;;5086473;28;19927;-54
2024/01/11 14:15:37;;;;;;;;;;;19.40;44.20;;;;;;5077924;28;19932;-56